Time;durP1;ratioP1;P1;durP2;ratioP2;P2;SDS_P1;SDS_P2;PMS_P1;PMS_P2;Temp;Humidity;BMP_temperature;BMP_pressure;BME280_temperature;BME280_humidity;BME280_pressure;Samples;Min_cycle;Max_cycle;Signal;HPM_P1;HPM_P2
2022/12/07 00:00:50;;;;;;;28.97;14.47;;;;;;;-0.02;100.00;100655.24;123730;1099;104207;-79
2022/12/07 00:03:21;;;;;;;30.33;13.83;;;;;;;-0.01;100.00;100651.86;123619;1098;104441;-79
2022/12/07 00:05:52;;;;;;;28.80;13.93;;;;;;;0.01;100.00;100654.56;123263;1099;104335;-78
2022/12/07 00:08:23;;;;;;;28.47;14.23;;;;;;;0.02;100.00;100653.80;123526;1098;104304;-78
2022/12/07 00:10:54;;;;;;;26.37;13.20;;;;;;;0.03;100.00;100636.63;123492;1099;104274;-79
2022/12/07 00:13:25;;;;;;;26.33;13.73;;;;;;;0.04;100.00;100641.02;123497;1099;104271;-79
2022/12/07 00:15:56;;;;;;;25.97;13.53;;;;;;;0.03;100.00;100639.20;123502;1099;104434;-80
2022/12/07 00:18:27;;;;;;;23.87;12.43;;;;;;;0.03;100.00;100631.47;123559;1099;104255;-79
2022/12/07 00:21:03;;;;;;;25.70;13.37;;;;;;;0.04;100.00;100639.33;123495;1099;104274;-79
2022/12/07 00:23:38;;;;;;;24.73;12.50;;;;;;;0.05;100.00;100632.48;123666;1099;104322;-79
2022/12/07 00:26:12;;;;;;;26.43;12.73;;;;;;;0.05;100.00;100635.05;123625;1099;104350;-79
2022/12/07 00:28:45;;;;;;;21.67;11.10;;;;;;;0.06;100.00;100626.55;123678;1099;104242;-80
2022/12/07 00:31:18;;;;;;;25.27;12.25;;;;;;;0.07;100.00;100620.63;123738;1099;104349;-82
2022/12/07 00:33:49;;;;;;;25.07;12.40;;;;;;;0.08;100.00;100617.24;123697;1099;104701;-80
2022/12/07 00:36:23;;;;;;;23.33;11.57;;;;;;;0.09;100.00;100617.36;123926;1099;104274;-80
2022/12/07 00:38:54;;;;;;;22.43;10.90;;;;;;;0.10;100.00;100613.13;123709;1099;104332;-80
2022/12/07 00:41:27;;;;;;;22.25;10.70;;;;;;;0.11;100.00;100615.83;123744;1099;104479;-80
2022/12/07 00:43:58;;;;;;;21.10;10.80;;;;;;;0.11;100.00;100608.09;123728;1099;104245;-80
2022/12/07 00:46:30;;;;;;;22.40;10.50;;;;;;;0.12;100.00;100606.39;123767;1099;104302;-79
2022/12/07 00:49:01;;;;;;;23.00;11.57;;;;;;;0.12;100.00;100601.23;123631;1099;104274;-79
2022/12/07 00:51:32;;;;;;;21.33;10.40;;;;;;;0.13;100.00;100603.05;123730;1099;104351;-80
2022/12/07 00:54:03;;;;;;;23.20;10.83;;;;;;;0.14;100.00;100604.83;123894;1099;104303;-79
2022/12/07 00:56:37;;;;;;;23.13;11.00;;;;;;;0.15;100.00;100592.04;123720;1099;104281;-79
2022/12/07 00:59:08;;;;;;;20.97;10.63;;;;;;;0.17;100.00;100592.16;123637;1099;104271;-79
2022/12/07 01:01:39;;;;;;;21.13;10.73;;;;;;;0.19;100.00;100593.20;123560;1099;104345;-79
2022/12/07 01:04:10;;;;;;;19.57;9.47;;;;;;;0.20;100.00;100588.94;123835;1099;104380;-79
2022/12/07 01:06:41;;;;;;;21.07;10.20;;;;;;;0.20;100.00;100584.66;123644;1099;104219;-80
2022/12/07 01:09:12;;;;;;;19.80;10.77;;;;;;;0.21;100.00;100583.00;123617;1099;105649;-79
2022/12/07 01:11:44;;;;;;;21.90;10.53;;;;;;;0.21;100.00;100586.47;123677;1099;104329;-79
2022/12/07 01:14:15;;;;;;;21.03;9.73;;;;;;;0.22;100.00;100577.04;123698;1098;104338;-79
2022/12/07 01:16:46;;;;;;;19.20;9.90;;;;;;;0.22;100.00;100580.55;123586;1099;104402;-79
2022/12/07 01:19:17;;;;;;;21.57;9.83;;;;;;;0.22;100.00;100577.96;123573;1099;104304;-79
2022/12/07 01:21:48;;;;;;;20.57;10.07;;;;;;;0.22;100.00;100572.80;123497;1099;104278;-79
2022/12/07 01:24:19;;;;;;;22.10;10.57;;;;;;;0.23;100.00;100571.11;123519;1099;104296;-79
2022/12/07 01:26:51;;;;;;;19.47;10.10;;;;;;;0.24;100.00;100572.92;123488;1099;104286;-78
2022/12/07 01:29:22;;;;;;;21.00;10.25;;;;;;;0.24;100.00;100573.81;123435;1099;105441;-79
2022/12/07 01:31:53;;;;;;;20.87;10.73;;;;;;;0.25;100.00;100574.70;123379;1099;104406;-77
2022/12/07 01:34:24;;;;;;;20.97;10.83;;;;;;;0.26;100.00;100572.23;123387;1099;104350;-77
2022/12/07 01:36:56;;;;;;;23.20;11.07;;;;;;;0.25;100.00;100565.30;123279;1099;104290;-77
2022/12/07 01:39:27;;;;;;;20.53;10.00;;;;;;;0.27;100.00;100566.30;123366;1099;104280;-77
2022/12/07 01:41:58;;;;;;;21.03;10.10;;;;;;;0.28;100.00;100560.38;123423;1099;104325;-77
2022/12/07 01:44:31;;;;;;;18.93;9.40;;;;;;;0.28;100.00;100543.97;123354;1099;104425;-77
2022/12/07 01:47:05;;;;;;;18.43;9.07;;;;;;;0.29;100.00;100553.52;123355;1098;104252;-77
2022/12/07 01:49:40;;;;;;;19.50;9.53;;;;;;;0.29;100.00;100562.15;123426;1098;104347;-77
2022/12/07 01:52:18;;;;;;;22.47;10.20;;;;;;;0.30;100.00;100545.89;123486;1099;104306;-77
2022/12/07 01:54:54;;;;;;;21.27;9.87;;;;;;;0.30;100.00;100538.15;123437;1099;104364;-77
2022/12/07 01:57:26;;;;;;;20.27;9.80;;;;;;;0.31;100.00;100542.54;123422;1099;104405;-78
2022/12/07 01:59:59;;;;;;;18.80;9.40;;;;;;;0.32;100.00;100539.16;123392;1098;104262;-77
2022/12/07 02:02:48;;;;;;;18.13;8.93;;;;;;;0.33;100.00;100527.17;123522;1099;104358;-78
2022/12/07 02:05:21;;;;;;;21.27;9.73;;;;;;;0.35;100.00;100538.50;123452;1099;104271;-77
2022/12/07 02:07:55;;;;;;;21.63;9.70;;;;;;;0.36;100.00;100537.73;123518;1099;104653;-78
2022/12/07 02:10:29;;;;;;;19.30;9.60;;;;;;;0.37;100.00;100536.05;123419;1099;104370;-78
2022/12/07 02:13:01;;;;;;;;;;;;;;;0.37;100.00;100534.34;123459;1099;104243;-78
2022/12/07 02:15:46;;;;;;;18.10;9.07;;;;;;;0.38;100.00;100532.69;123386;1099;104347;-78
2022/12/07 02:18:26;;;;;;;20.23;9.17;;;;;;;0.39;100.00;100532.81;123486;1099;104348;-78
2022/12/07 02:21:04;;;;;;;19.97;9.67;;;;;;;0.39;100.00;100530.22;123394;1099;104335;-77
2022/12/07 02:23:52;;;;;;;19.37;9.30;;;;;;;0.41;100.00;100530.34;123437;1099;104370;-77
2022/12/07 02:27:16;;;;;;;19.57;9.83;;;;;;;0.41;100.00;100531.23;123365;1099;104393;-78
2022/12/07 02:29:55;;;;;;;18.90;8.70;;;;;;;0.43;100.00;100521.02;123412;1099;104345;-76
2022/12/07 02:32:31;;;;;;;19.33;9.37;;;;;;;0.42;100.00;100520.13;123350;1099;109548;-76
2022/12/07 02:35:07;;;;;;;19.23;9.53;;;;;;;0.43;100.00;100518.44;123316;1099;104245;-77
2022/12/07 02:37:43;;;;;;;19.10;9.30;;;;;;;0.45;100.00;100529.77;123401;1099;104246;-77
2022/12/07 02:40:21;;;;;;;19.20;9.83;;;;;;;0.45;100.00;100517.78;123371;1099;104280;-76
2022/12/07 02:42:56;;;;;;;20.03;9.23;;;;;;;0.46;100.00;100518.67;123433;1099;104277;-76
2022/12/07 02:45:30;;;;;;;18.60;8.80;;;;;;;0.46;100.00;100518.67;123406;1099;104734;-77
2022/12/07 02:48:03;;;;;;;17.53;8.43;;;;;;;0.47;100.00;100512.73;123453;1099;104206;-77
2022/12/07 02:50:34;;;;;;;19.97;9.10;;;;;;;0.49;100.00;100513.74;123496;1099;104229;-76
2022/12/07 02:53:05;;;;;;;19.00;8.83;;;;;;;0.49;100.00;100506.00;123425;1099;104399;-77
2022/12/07 02:55:42;;;;;;;19.95;9.45;;;;;;;0.49;100.00;100493.09;123449;1099;104203;-77
2022/12/07 02:58:29;;;;;;;17.50;8.30;;;;;;;0.50;100.00;100487.16;123411;1099;104386;-77
2022/12/07 03:01:12;;;;;;;14.53;7.33;;;;;;;0.49;100.00;100486.23;123434;1099;104360;-77
2022/12/07 03:03:51;;;;;;;16.70;8.10;;;;;;;0.49;100.00;100478.48;123456;1099;104389;-77
2022/12/07 03:06:29;;;;;;;16.50;7.55;;;;;;;0.51;100.00;100481.19;123369;1099;104287;-75
2022/12/07 03:09:14;;;;;;;16.90;8.30;;;;;;;0.52;100.00;100480.41;123423;1099;104351;-76
2022/12/07 03:11:51;;;;;;;16.80;7.87;;;;;;;0.52;100.00;100475.25;123504;1099;104258;-76
2022/12/07 03:14:30;;;;;;;16.17;8.40;;;;;;;0.53;100.00;100474.44;123605;1099;104306;-76
2022/12/07 03:17:06;;;;;;;15.67;7.50;;;;;;;0.54;100.00;100473.67;123520;1099;104181;-76
2022/12/07 03:19:39;;;;;;;16.37;8.00;;;;;;;0.56;100.00;100476.37;123533;1099;104350;-77
2022/12/07 03:22:14;;;;;;;16.62;8.03;;;;;;;0.54;100.00;100469.39;123657;1099;104338;-78
2022/12/07 03:24:46;;;;;;;;;;;;;;;0.56;100.00;100466.04;123523;1099;104261;-77
2022/12/07 03:27:21;;;;;;;15.07;7.53;;;;;;;0.56;100.00;100468.62;123597;1099;104654;-77
2022/12/07 03:29:59;;;;;;;18.13;8.20;;;;;;;0.56;100.00;100469.50;123595;1099;104370;-77
2022/12/07 03:32:36;;;;;;;16.37;7.57;;;;;;;0.57;100.00;100466.16;123571;1099;104281;-76
2022/12/07 03:35:12;;;;;;;16.23;7.90;;;;;;;0.59;100.00;100466.27;123609;1099;104220;-78
2022/12/07 03:37:47;;;;;;;17.83;7.70;;;;;;;0.60;100.00;100468.97;123765;1099;104283;-78
2022/12/07 03:40:25;;;;;;;13.37;7.23;;;;;;;0.61;100.00;100464.69;123731;1099;104254;-76
2022/12/07 03:42:59;;;;;;;15.47;7.67;;;;;;;0.62;100.00;100459.64;123696;1099;104371;-77
2022/12/07 03:45:38;;;;;;;14.47;6.80;;;;;;;0.63;100.00;100461.45;123389;1099;104392;-77
2022/12/07 03:48:18;;;;;;;14.33;7.10;;;;;;;0.65;100.00;100461.56;123880;1099;104258;-77
2022/12/07 03:50:55;;;;;;;14.80;6.73;;;;;;;0.65;100.00;100459.87;123755;1099;104258;-78
2022/12/07 03:53:35;;;;;;;13.50;6.53;;;;;;;0.67;100.00;100465.14;123610;1099;104306;-78
2022/12/07 03:56:07;;;;;;;14.15;7.15;;;;;;;0.67;100.00;100455.73;123747;1099;104399;-78
2022/12/07 03:58:40;;;;;;;12.23;6.30;;;;;;;0.68;100.00;100462.67;123617;1098;104357;-78
2022/12/07 04:01:11;;;;;;;15.93;7.07;;;;;;;0.70;100.00;100460.20;123721;1099;104274;-78
2022/12/07 04:03:42;;;;;;;13.80;6.67;;;;;;;0.70;100.00;100453.38;123434;1099;104683;-78
2022/12/07 04:06:14;;;;;;;13.27;6.60;;;;;;;0.70;100.00;100448.22;123537;1099;104300;-78
2022/12/07 04:09:00;;;;;;;15.05;7.75;;;;;;;0.74;100.00;100456.19;123660;1099;104431;-77
2022/12/07 04:11:31;;;;;;;16.30;7.60;;;;;;;0.73;100.00;100451.80;123463;1099;104260;-77
2022/12/07 04:14:21;;;;;;;12.63;6.70;;;;;;;0.74;100.00;100451.02;123463;1097;104274;-77
2022/12/07 04:16:56;;;;;;;13.03;6.83;;;;;;;0.75;100.00;100443.39;123571;1099;104323;-77
2022/12/07 04:19:29;;;;;;;14.63;7.20;;;;;;;0.76;100.00;100442.58;123500;1099;104348;-78
2022/12/07 04:22:02;;;;;;;14.70;6.87;;;;;;;0.77;100.00;100438.34;123540;1098;104277;-77
2022/12/07 04:24:34;;;;;;;13.70;6.97;;;;;;;0.79;100.00;100444.50;123880;1099;106987;-77
2022/12/07 04:27:06;;;;;;;12.73;6.90;;;;;;;0.80;100.00;100435.98;123820;1099;104347;-77
2022/12/07 04:29:37;;;;;;;12.40;6.17;;;;;;;0.81;100.00;100441.27;123751;1099;104785;-77
2022/12/07 04:32:08;;;;;;;13.53;6.50;;;;;;;0.81;100.00;100438.67;123396;1099;104373;-78
2022/12/07 04:34:39;;;;;;;12.60;6.25;;;;;;;0.83;100.00;100441.38;123705;1099;104409;-76
2022/12/07 04:37:10;;;;;;;13.60;6.33;;;;;;;0.86;100.00;100439.02;123680;1098;104261;-77
2022/12/07 04:39:43;;;;;;;14.87;6.33;;;;;;;0.87;100.00;100443.38;123641;1099;104274;-78
2022/12/07 04:42:14;;;;;;;11.90;6.37;;;;;;;0.88;100.00;100440.02;123608;1099;104271;-77
2022/12/07 04:44:46;;;;;;;13.67;6.40;;;;;;;0.89;100.00;100440.13;123635;1099;104242;-77
2022/12/07 04:47:17;;;;;;;14.50;6.57;;;;;;;0.91;100.00;100439.35;123322;1099;104398;-78
2022/12/07 04:49:48;;;;;;;14.97;6.87;;;;;;;0.92;100.00;100444.63;123699;1099;104306;-78
2022/12/07 04:52:19;;;;;;;12.97;5.83;;;;;;;0.93;100.00;100430.91;123796;1099;104354;-79
2022/12/07 04:54:50;;;;;;;15.17;7.20;;;;;;;0.94;100.00;100430.13;123921;1099;104296;-80
2022/12/07 04:57:21;;;;;;;15.40;6.50;;;;;;;0.97;100.00;100434.63;124229;1099;104301;-78
2022/12/07 04:59:52;;;;;;;13.40;6.50;;;;;;;0.97;100.00;100432.94;124025;1099;104402;-79
2022/12/07 05:02:23;;;;;;;13.67;6.63;;;;;;;0.99;100.00;100428.77;123698;1099;104255;-77
2022/12/07 05:04:54;;;;;;;15.70;7.00;;;;;;;1.01;100.00;100436.63;123714;1098;104274;-78
2022/12/07 05:07:25;;;;;;;18.20;7.40;;;;;;;1.02;100.00;100428.11;123866;1099;104351;-78
2022/12/07 05:09:56;;;;;;;16.17;7.27;;;;;;;1.04;100.00;100430.02;123682;1099;104274;-78
2022/12/07 05:12:28;;;;;;;17.83;7.80;;;;;;;1.04;100.00;100429.10;123661;1099;104363;-78
2022/12/07 05:14:59;;;;;;;18.70;8.47;;;;;;;1.05;100.00;100428.33;123692;1099;104830;-78
2022/12/07 05:17:30;;;;;;;18.97;8.17;;;;;;;1.07;100.00;100434.50;123971;1099;104274;-78
2022/12/07 05:20:01;;;;;;;17.60;7.87;;;;;;;1.08;100.00;100429.44;124077;1099;104274;-77
2022/12/07 05:22:32;;;;;;;18.03;7.83;;;;;;;1.10;100.00;100434.72;123554;1099;104351;-76
2022/12/07 05:25:04;;;;;;;20.50;8.60;;;;;;;1.12;100.00;100429.66;123597;1099;105441;-76
2022/12/07 05:27:37;;;;;;;16.93;8.03;;;;;;;1.14;100.00;100426.41;123456;1099;104048;-77
2022/12/07 05:30:12;;;;;;;18.57;8.43;;;;;;;1.16;100.00;100435.16;123805;1099;104251;-77
2022/12/07 05:32:43;;;;;;;18.90;8.47;;;;;;;1.19;100.00;100437.08;123800;1099;104347;-76
2022/12/07 05:35:14;;;;;;;18.47;8.07;;;;;;;1.18;100.00;100428.41;123646;1098;104271;-76
2022/12/07 05:37:46;;;;;;;19.33;9.10;;;;;;;1.22;100.00;100437.30;123678;1099;104736;-77
2022/12/07 05:40:18;;;;;;;19.77;9.30;;;;;;;1.24;100.00;100435.71;124079;1099;104252;-77
2022/12/07 05:42:50;;;;;;;20.90;9.13;;;;;;;1.26;100.00;100428.95;123916;1099;104351;-77
2022/12/07 05:45:21;;;;;;;19.57;9.13;;;;;;;1.29;100.00;100429.17;123800;1099;104279;-77
2022/12/07 05:47:52;;;;;;;23.33;11.13;;;;;;;1.33;100.00;100425.14;123928;1098;104245;-77
2022/12/07 05:50:23;;;;;;;19.33;8.37;;;;;;;1.37;100.00;100421.97;124558;1099;104408;-78
2022/12/07 05:53:04;;;;;;;20.53;9.13;;;;;;;1.42;100.00;100415.45;123884;1099;104334;-78
2022/12/07 05:55:35;;;;;;;21.23;9.03;;;;;;;1.47;100.00;100415.78;123755;1099;104363;-78
2022/12/07 06:00:56;;;;;;;18.23;9.03;;;;;;;1.54;100.00;100420.58;124462;1099;103012;-78
2022/12/07 06:03:28;;;;;;;18.65;8.90;;;;;;;1.57;100.00;100416.54;124467;1099;104647;-79
2022/12/07 06:05:59;;;;;;;19.80;9.20;;;;;;;1.60;100.00;100421.89;124184;1099;104393;-78
2022/12/07 06:08:30;;;;;;;18.15;8.40;;;;;;;1.63;100.00;100420.33;124309;1098;104242;-80
2022/12/07 06:13:46;;;;;;;19.37;8.90;;;;;;;1.70;100.00;100427.71;124693;1099;104313;-76
2022/12/07 06:16:17;;;;;;;18.15;8.30;;;;;;;1.72;100.00;100432.22;124071;1098;104169;-76
2022/12/07 06:18:48;;;;;;;21.30;8.67;;;;;;;1.73;100.00;100428.84;124136;1099;104405;-76
2022/12/07 06:21:19;;;;;;;18.90;8.70;;;;;;;1.75;100.00;100427.25;124909;1098;104564;-76
2022/12/07 06:23:51;;;;;;;19.03;8.77;;;;;;;1.77;100.00;100430.84;124774;1099;104101;-76
2022/12/07 06:26:23;;;;;;;19.07;9.03;;;;;;;1.80;100.00;100428.46;124529;1099;104166;-76
2022/12/07 06:28:54;;;;;;;22.70;9.90;;;;;;;1.84;100.00;100431.26;127013;1098;102125;-78
2022/12/07 06:31:26;;;;;;;21.77;9.67;;;;;;;1.87;100.00;100423.71;126118;1098;102084;-78
2022/12/07 06:34:01;;;;;;;20.67;9.83;;;;;;;1.89;100.00;100429.91;124809;1099;104249;-77
2022/12/07 06:36:33;;;;;;;22.03;9.33;;;;;;;1.94;100.00;100428.53;126031;1099;101495;-76
2022/12/07 06:39:05;;;;;;;22.37;9.97;;;;;;;1.96;100.00;100421.76;126563;1099;102680;-76
2022/12/07 06:41:37;;;;;;;20.67;9.33;;;;;;;2.01;100.00;100422.99;126107;1099;102825;-77
2022/12/07 06:44:08;;;;;;;20.33;9.07;;;;;;;2.10;100.00;100425.29;126696;1099;102956;-77
2022/12/07 06:47:00;;;;;;;19.30;9.23;;;;;;;2.14;100.00;100428.20;126871;1098;101956;-77
2022/12/07 06:49:32;;;;;;;20.63;9.50;;;;;;;2.21;100.00;100423.44;126847;1098;102131;-76
2022/12/07 06:52:10;;;;;;;22.20;10.20;;;;;;;2.28;100.00;100425.66;126836;1098;103308;-78
2022/12/07 06:54:41;;;;;;;22.97;10.70;;;;;;;2.35;100.00;100422.67;125713;1099;104243;-78
2022/12/07 06:57:12;;;;;;;23.40;11.07;;;;;;;2.40;100.00;100426.48;125039;1099;104310;-78
2022/12/07 06:59:43;;;;;;;25.43;12.07;;;;;;;2.43;100.00;100416.33;124624;1100;102951;-79
2022/12/07 07:02:14;;;;;;;24.70;11.37;;;;;;;2.50;100.00;100421.10;125228;1099;104185;-78
2022/12/07 07:04:46;;;;;;;26.20;13.20;;;;;;;2.54;100.00;100419.64;125264;1099;102730;-79
2022/12/07 07:07:17;;;;;;;27.97;13.40;;;;;;;2.61;100.00;100421.81;125383;1099;102946;-79
2022/12/07 07:09:48;;;;;;;27.10;14.10;;;;;;;2.63;100.00;100417.66;125537;1098;102695;-80
2022/12/07 07:12:20;;;;;;;26.37;12.30;;;;;;;2.64;100.00;100419.43;125789;1099;104316;-80
2022/12/07 07:14:51;;;;;;;30.63;13.50;;;;;;;2.66;100.00;100419.53;125352;1099;104268;-82
2022/12/07 07:17:23;;;;;;;27.47;13.47;;;;;;;2.70;100.00;100416.36;124890;1099;102240;-82
2022/12/07 07:19:55;;;;;;;31.50;13.17;;;;;;;2.75;100.00;100414.06;125361;1098;103543;-81
2022/12/07 07:22:27;;;;;;;27.17;12.50;;;;;;;2.78;100.00;100411.67;124854;1099;104331;-80
2022/12/07 07:25:19;;;;;;;27.57;13.07;;;;;;;2.81;100.00;100404.98;125334;1099;104194;-83
2022/12/07 07:27:50;;;;;;;26.93;13.00;;;;;;;2.86;100.00;100413.95;125440;1099;104205;-81
2022/12/07 07:30:24;;;;;;;29.77;14.17;;;;;;;2.90;100.00;100416.73;125447;1099;104127;-79
2022/12/07 07:32:59;;;;;;;31.07;13.62;;;;;;;2.94;100.00;100410.97;125424;1098;103647;-78
2022/12/07 07:35:32;;;;;;;28.57;13.10;;;;;;;2.96;100.00;100407.69;125193;1099;104367;-80
2022/12/07 07:38:04;;;;;;;31.10;13.77;;;;;;;3.00;100.00;100401.88;124705;1099;104165;-77
2022/12/07 07:40:36;;;;;;;36.43;15.23;;;;;;;3.02;100.00;100397.72;125197;1099;104254;-79
2022/12/07 07:43:10;;;;;;;30.90;14.97;;;;;;;3.04;100.00;100408.19;124582;1099;102561;-77
2022/12/07 07:45:42;;;;;;;53.90;27.30;;;;;;;3.07;100.00;100408.38;125331;1099;103055;-80
2022/12/07 07:48:14;;;;;;;37.77;17.87;;;;;;;3.07;100.00;100398.02;125269;1098;103745;-79
2022/12/07 07:50:45;;;;;;;32.07;16.00;;;;;;;3.10;100.00;100405.98;125175;1099;104344;-77
2022/12/07 07:53:17;;;;;;;34.37;17.00;;;;;;;3.16;100.00;100408.94;124676;1100;102407;-78
2022/12/07 07:55:55;;;;;;;39.70;18.17;;;;;;;3.21;100.00;100406.64;125260;1099;102964;-75
2022/12/07 07:58:28;;;;;;;35.17;16.90;;;;;;;3.23;100.00;100399.87;125396;1099;104338;-78
2022/12/07 08:01:06;;;;;;;32.77;15.33;;;;;;;3.26;100.00;100396.56;125516;1098;102708;-78
2022/12/07 08:03:39;;;;;;;33.65;14.65;;;;;;;3.26;100.00;100396.56;125206;1099;104226;-75
2022/12/07 08:06:24;;;;;;;30.40;14.03;;;;;;;3.28;100.00;100398.46;125300;1099;104095;-77
2022/12/07 08:08:59;;;;;;;30.93;13.90;;;;;;;3.32;100.00;100394.35;125227;1097;102195;-78
2022/12/07 08:11:32;;;;;;;38.77;14.37;;;;;;;3.35;100.00;100394.55;125772;1099;102855;-80
2022/12/07 08:14:25;;;;;;;32.60;14.53;;;;;;;3.36;100.00;100397.23;126152;1098;104283;-77
2022/12/07 08:20:02;;;;;;;33.13;15.77;;;;;;;3.42;100.00;100392.44;125618;1099;103347;-77
2022/12/07 08:22:38;;;;;;;40.50;16.40;;;;;;;3.45;100.00;100393.45;125274;1099;103341;-79
2022/12/07 08:25:18;;;;;;;33.33;16.60;;;;;;;3.47;100.00;100397.91;125235;1098;103088;-78
2022/12/07 08:27:50;;;;;;;35.87;15.80;;;;;;;3.49;100.00;100398.00;124660;1102;104239;-78
2022/12/07 08:30:33;;;;;;;38.20;15.10;;;;;;;3.49;100.00;100385.95;125236;1099;103010;-77
2022/12/07 08:33:16;;;;;;;36.43;15.93;;;;;;;3.51;100.00;100389.53;124692;1099;104226;-78
2022/12/07 08:35:54;;;;;;;57.20;17.50;;;;;;;3.54;100.00;100386.23;125373;1099;104249;-77
2022/12/07 08:38:46;;;;;;;116.30;23.97;;;;;;;3.54;100.00;100387.13;125291;1099;103494;-78
2022/12/07 08:41:59;;;;;;;111.27;27.37;;;;;;;3.57;100.00;100387.31;126526;1098;104181;-79
2022/12/07 08:45:18;;;;;;;46.63;19.57;;;;;;;3.60;100.00;100374.53;125679;1102;102708;-79
2022/12/07 08:55:16;;;;;;;84.13;23.50;;;;;;;3.70;100.00;100363.00;125629;1102;104322;-78
2022/12/07 08:58:24;;;;;;;46.23;20.17;;;;;;;3.75;100.00;100365.88;126207;1099;104198;-79
2022/12/07 09:01:35;;;;;;;41.63;20.10;;;;;;;3.81;100.00;100370.56;126238;1099;102730;-80
2022/12/07 09:04:54;;;;;;;43.30;19.03;;;;;;;3.87;100.00;100352.76;126065;1099;104313;-77
2022/12/07 09:07:51;;;;;;;43.57;18.57;;;;;;;3.94;100.00;100355.81;126258;1098;102533;-78
2022/12/07 09:10:34;;;;;;;69.93;23.20;;;;;;;4.00;100.00;100356.98;126253;1099;119479;-78
2022/12/07 09:13:54;;;;;;;62.73;22.77;;;;;;;4.07;100.00;100356.55;126327;1099;102952;-78
2022/12/07 09:17:02;;;;;;;53.97;23.37;;;;;;;4.15;100.00;100357.89;126231;1099;103021;-78
2022/12/07 09:20:20;;;;;;;152.43;33.43;;;;;;;4.20;100.00;100355.56;125045;1102;104315;-76
2022/12/07 09:23:29;;;;;;;74.90;25.13;;;;;;;4.24;100.00;100350.64;125455;1102;103195;-77
2022/12/07 09:29:28;;;;;;;56.93;25.80;;;;;;;4.32;100.00;100341.59;125472;1102;102888;-78
2022/12/07 09:32:03;;;;;;;58.40;26.00;;;;;;;4.36;100.00;100342.64;124858;1102;104472;-78
2022/12/07 09:34:44;;;;;;;48.53;25.03;;;;;;;4.41;100.00;100337.72;124948;1099;104246;-75
2022/12/07 09:37:53;;;;;;;55.10;23.90;;;;;;;4.44;100.00;100341.41;125873;1099;103578;-76
2022/12/07 09:40:48;;;;;;;52.93;22.83;;;;;;;4.47;100.00;100336.39;125632;1099;102499;-78
2022/12/07 09:43:27;;;;;;;49.33;23.47;;;;;;;4.53;100.00;100330.62;125392;1099;103548;-78
2022/12/07 09:46:02;;;;;;;49.23;25.12;;;;;;;4.60;100.00;100335.37;125357;1099;104206;-78
2022/12/07 09:48:40;;;;;;;50.60;24.97;;;;;;;4.70;100.00;100320.30;125448;1099;102118;-77
2022/12/07 09:51:19;;;;;;;61.30;30.50;;;;;;;4.76;100.00;100316.34;125600;1099;104162;-76
2022/12/07 09:53:54;;;;;;;58.07;28.73;;;;;;;4.83;100.00;100320.16;124765;1099;104184;-76
2022/12/07 09:56:26;;;;;;;54.40;27.43;;;;;;;4.89;100.00;100315.30;125362;1099;104024;-76
2022/12/07 09:59:04;;;;;;;54.80;25.80;;;;;;;4.96;100.00;100316.56;124641;1099;104204;-77
2022/12/07 10:01:39;;;;;;;49.77;24.23;;;;;;;5.02;100.00;100315.19;126710;1098;110697;-76
2022/12/07 10:04:16;;;;;;;46.80;22.77;;;;;;;5.07;100.00;100309.35;124875;1099;102752;-76
2022/12/07 10:06:48;;;;;;;47.17;21.93;;;;;;;5.13;100.00;100300.17;125397;1099;102799;-78
2022/12/07 10:09:21;;;;;;;43.10;21.57;;;;;;;5.19;100.00;100305.70;125212;1099;104197;-76
2022/12/07 10:12:09;;;;;;;43.02;21.25;;;;;;;5.24;100.00;100307.67;125308;1099;104190;-80
2022/12/07 10:14:54;;;;;;;44.37;21.87;;;;;;;5.32;100.00;100306.36;125475;1099;103483;-78
2022/12/07 10:17:43;;;;;;;43.17;22.70;;;;;;;5.35;100.00;100299.61;124974;1099;102676;-83
2022/12/07 10:20:24;;;;;;;42.47;22.23;;;;;;;5.37;100.00;100295.37;125764;1099;104222;-77
2022/12/07 10:23:15;;;;;;;43.50;20.97;;;;;;;5.41;100.00;100296.45;125580;1098;102685;-75
2022/12/07 10:29:25;;;;;;;37.87;19.37;;;;;;;5.48;100.00;100300.27;125656;1098;104291;-76
2022/12/07 10:33:03;;;;;;;39.87;20.63;;;;;;;5.52;100.00;100294.41;125572;1099;103184;-78
2022/12/07 10:36:21;;;;;;;41.50;21.10;;;;;;;5.57;100.00;100288.61;125688;1099;103121;-75
2022/12/07 10:39:20;;;;;;;41.33;21.63;;;;;;;5.64;100.00;100284.65;124933;1099;104123;-75
2022/12/07 10:42:08;;;;;;;39.60;20.03;;;;;;;5.71;100.00;100296.27;125236;1099;104080;-75
2022/12/07 10:44:42;;;;;;;40.90;20.70;;;;;;;5.74;100.00;100292.09;125269;1099;104153;-77
2022/12/07 10:47:31;;;;;;;38.63;20.00;;;;;;;5.80;100.00;100301.03;125523;1099;104928;-77
2022/12/07 10:50:22;;;;;;;44.03;21.57;;;;;;;5.80;100.00;100301.03;125558;1099;103393;-76
2022/12/07 10:53:36;;;;;;;42.63;21.97;;;;;;;5.81;100.00;100293.30;125509;1098;104367;-77
2022/12/07 10:56:37;;;;;;;43.10;21.13;;;;;;;5.83;100.00;100298.58;125018;1099;104226;-75
2022/12/07 10:59:38;;;;;;;43.17;22.10;;;;;;;5.83;100.00;100293.38;126639;1098;103313;-76
2022/12/07 11:02:25;;;;;;;41.23;21.93;;;;;;;5.88;100.00;100295.41;126584;1099;102167;-77
2022/12/07 11:05:08;;;;;;;39.73;21.30;;;;;;;5.91;100.00;100289.48;126607;1099;102910;-77
2022/12/07 11:07:52;;;;;;;40.30;21.33;;;;;;;5.94;100.00;100285.31;126413;1099;102058;-76
2022/12/07 11:10:40;;;;;;;42.17;21.83;;;;;;;5.98;100.00;100281.17;125932;1099;102026;-77
2022/12/07 11:13:24;;;;;;;41.87;21.37;;;;;;;6.00;100.00;100286.46;126016;1099;102863;-77
2022/12/07 11:16:16;;;;;;;40.50;20.37;;;;;;;6.00;100.00;100284.77;126121;1099;101884;-75
2022/12/07 11:19:16;;;;;;;37.97;20.27;;;;;;;6.01;100.00;100281.33;126736;1098;101925;-78
2022/12/07 11:21:58;;;;;;;38.03;19.97;;;;;;;6.02;100.00;100287.45;126289;1098;102989;-76
2022/12/07 11:24:41;;;;;;;40.27;20.60;;;;;;;6.02;100.00;100277.03;126690;1099;101938;-76
2022/12/07 11:27:30;;;;;;;38.20;19.70;;;;;;;5.98;100.00;100281.17;126031;1099;103207;-76
2022/12/07 11:30:14;;;;;;;36.87;20.33;;;;;;;5.96;100.00;100287.99;126554;1099;101897;-78
2022/12/07 11:32:58;;;;;;;35.05;18.65;;;;;;;5.93;100.00;100285.23;125962;1099;102829;-77
2022/12/07 11:35:40;;;;;;;35.00;18.70;;;;;;;5.89;100.00;100286.80;126655;1099;102755;-77
2022/12/07 11:38:16;;;;;;;38.40;20.33;;;;;;;5.87;100.00;100277.11;126716;1098;102518;-80
2022/12/07 11:40:51;;;;;;;38.97;20.00;;;;;;;5.86;100.00;100278.83;126647;1098;102837;-76
2022/12/07 11:43:31;;;;;;;36.37;19.90;;;;;;;5.85;100.00;100278.75;126423;1099;101492;-77
2022/12/07 11:46:15;;;;;;;34.97;19.37;;;;;;;5.86;100.00;100285.72;126165;1099;102142;-77
2022/12/07 11:48:53;;;;;;;38.57;21.33;;;;;;;5.91;100.00;100274.73;126296;1098;101919;-75
2022/12/07 11:51:26;;;;;;;41.13;22.27;;;;;;;5.95;100.00;100267.96;126342;1099;102309;-76
2022/12/07 11:54:12;;;;;;;40.47;21.50;;;;;;;5.98;100.00;100262.94;126323;1098;102402;-75
2022/12/07 11:56:46;;;;;;;38.27;18.80;;;;;;;5.98;100.00;100257.73;126291;1098;101363;-74
2022/12/07 11:59:25;;;;;;;36.57;19.30;;;;;;;6.00;100.00;100258.72;126230;1098;102463;-76
2022/12/07 12:02:23;;;;;;;40.13;20.63;;;;;;;6.05;100.00;100257.23;126126;1099;102689;-78
2022/12/07 12:05:02;;;;;;;37.00;18.57;;;;;;;6.08;100.00;100266.92;126084;1098;102192;-76
2022/12/07 12:07:34;;;;;;;34.47;18.70;;;;;;;6.11;100.00;100275.77;126114;1099;102693;-76